sensor_id;sensor_type;location;lat;lon;timestamp;temperature;humidity
67817;DHT22;54614;47.576;7.524;2022-08-19T00:00:38;26.60;63.10
67817;DHT22;54614;47.576;7.524;2022-08-19T00:03:05;26.60;63.20
67817;DHT22;54614;47.576;7.524;2022-08-19T00:05:32;26.60;63.30
67817;DHT22;54614;47.576;7.524;2022-08-19T00:07:58;26.60;63.20
67817;DHT22;54614;47.576;7.524;2022-08-19T00:10:24;26.60;63.20
67817;DHT22;54614;47.576;7.524;2022-08-19T00:12:50;26.60;63.20
67817;DHT22;54614;47.576;7.524;2022-08-19T00:15:20;26.60;63.30
67817;DHT22;54614;47.576;7.524;2022-08-19T00:17:47;26.60;63.30
67817;DHT22;54614;47.576;7.524;2022-08-19T00:20:17;26.60;63.40
67817;DHT22;54614;47.576;7.524;2022-08-19T00:22:46;26.60;63.30
67817;DHT22;54614;47.576;7.524;2022-08-19T00:25:14;26.60;63.40
67817;DHT22;54614;47.576;7.524;2022-08-19T00:27:41;26.60;63.40
67817;DHT22;54614;47.576;7.524;2022-08-19T00:30:07;26.60;63.40
67817;DHT22;54614;47.576;7.524;2022-08-19T00:32:35;26.60;63.40
67817;DHT22;54614;47.576;7.524;2022-08-19T00:35:02;26.60;63.50
67817;DHT22;54614;47.576;7.524;2022-08-19T00:37:29;26.60;63.50
67817;DHT22;54614;47.576;7.524;2022-08-19T00:39:55;26.60;63.50
67817;DHT22;54614;47.576;7.524;2022-08-19T00:42:21;26.60;63.40
67817;DHT22;54614;47.576;7.524;2022-08-19T00:44:48;26.60;63.40
67817;DHT22;54614;47.576;7.524;2022-08-19T00:47:16;26.60;63.40
67817;DHT22;54614;47.576;7.524;2022-08-19T00:49:49;26.60;63.40
67817;DHT22;54614;47.576;7.524;2022-08-19T00:52:31;26.60;63.40
67817;DHT22;54614;47.576;7.524;2022-08-19T00:55:00;26.60;63.40
67817;DHT22;54614;47.576;7.524;2022-08-19T00:57:35;26.60;63.40
67817;DHT22;54614;47.576;7.524;2022-08-19T01:00:10;26.60;63.40
67817;DHT22;54614;47.576;7.524;2022-08-19T01:02:40;26.70;63.40
67817;DHT22;54614;47.576;7.524;2022-08-19T01:05:10;26.60;63.40
67817;DHT22;54614;47.576;7.524;2022-08-19T01:07:41;26.70;63.40
67817;DHT22;54614;47.576;7.524;2022-08-19T01:10:12;26.70;63.40
67817;DHT22;54614;47.576;7.524;2022-08-19T01:12:40;26.60;63.30
67817;DHT22;54614;47.576;7.524;2022-08-19T01:15:09;26.70;63.40
67817;DHT22;54614;47.576;7.524;2022-08-19T01:17:38;26.60;63.40
67817;DHT22;54614;47.576;7.524;2022-08-19T01:20:07;26.60;63.30
67817;DHT22;54614;47.576;7.524;2022-08-19T01:22:53;26.70;63.40
67817;DHT22;54614;47.576;7.524;2022-08-19T01:25:27;26.70;63.40
67817;DHT22;54614;47.576;7.524;2022-08-19T01:28:00;26.70;63.20
67817;DHT22;54614;47.576;7.524;2022-08-19T01:30:32;26.70;63.20
67817;DHT22;54614;47.576;7.524;2022-08-19T01:33:01;26.70;63.20
67817;DHT22;54614;47.576;7.524;2022-08-19T01:35:31;26.70;63.10
67817;DHT22;54614;47.576;7.524;2022-08-19T01:38:01;26.70;63.10
67817;DHT22;54614;47.576;7.524;2022-08-19T01:40:35;26.70;63.10
67817;DHT22;54614;47.576;7.524;2022-08-19T01:43:05;26.70;63.10
67817;DHT22;54614;47.576;7.524;2022-08-19T01:45:33;26.70;63.10
67817;DHT22;54614;47.576;7.524;2022-08-19T01:48:00;26.70;63.20
67817;DHT22;54614;47.576;7.524;2022-08-19T01:50:26;26.70;63.20
67817;DHT22;54614;47.576;7.524;2022-08-19T01:52:53;26.60;63.20
67817;DHT22;54614;47.576;7.524;2022-08-19T01:55:21;26.70;63.20
67817;DHT22;54614;47.576;7.524;2022-08-19T01:57:52;26.70;63.10
67817;DHT22;54614;47.576;7.524;2022-08-19T02:00:24;26.70;63.20
67817;DHT22;54614;47.576;7.524;2022-08-19T02:02:53;26.70;63.40
67817;DHT22;54614;47.576;7.524;2022-08-19T02:05:19;26.70;63.20
67817;DHT22;54614;47.576;7.524;2022-08-19T02:07:47;26.70;63.20
67817;DHT22;54614;47.576;7.524;2022-08-19T02:10:18;26.70;63.10
67817;DHT22;54614;47.576;7.524;2022-08-19T02:12:46;26.70;63.20
67817;DHT22;54614;47.576;7.524;2022-08-19T02:15:14;26.70;63.20
67817;DHT22;54614;47.576;7.524;2022-08-19T02:17:41;26.60;63.20
67817;DHT22;54614;47.576;7.524;2022-08-19T02:20:08;26.70;63.20
67817;DHT22;54614;47.576;7.524;2022-08-19T02:22:35;26.70;63.10
67817;DHT22;54614;47.576;7.524;2022-08-19T02:25:01;26.70;63.10
67817;DHT22;54614;47.576;7.524;2022-08-19T02:27:27;26.70;63.10
67817;DHT22;54614;47.576;7.524;2022-08-19T02:29:53;26.70;63.20
67817;DHT22;54614;47.576;7.524;2022-08-19T02:32:19;26.70;63.30
67817;DHT22;54614;47.576;7.524;2022-08-19T02:34:46;26.70;63.30
67817;DHT22;54614;47.576;7.524;2022-08-19T02:37:13;26.70;63.30
67817;DHT22;54614;47.576;7.524;2022-08-19T02:39:59;26.70;63.30
67817;DHT22;54614;47.576;7.524;2022-08-19T02:42:26;26.70;63.20
67817;DHT22;54614;47.576;7.524;2022-08-19T02:44:52;26.60;63.10
67817;DHT22;54614;47.576;7.524;2022-08-19T02:47:18;26.70;63.10
67817;DHT22;54614;47.576;7.524;2022-08-19T02:49:45;26.70;63.10
67817;DHT22;54614;47.576;7.524;2022-08-19T02:52:11;26.70;63.20
67817;DHT22;54614;47.576;7.524;2022-08-19T02:54:38;26.60;63.10
67817;DHT22;54614;47.576;7.524;2022-08-19T02:57:04;26.70;63.30
67817;DHT22;54614;47.576;7.524;2022-08-19T02:59:32;26.60;63.20
67817;DHT22;54614;47.576;7.524;2022-08-19T03:01:58;26.70;63.40
67817;DHT22;54614;47.576;7.524;2022-08-19T03:04:24;26.70;63.20
67817;DHT22;54614;47.576;7.524;2022-08-19T03:06:50;26.70;63.20
67817;DHT22;54614;47.576;7.524;2022-08-19T03:09:18;26.70;63.10
67817;DHT22;54614;47.576;7.524;2022-08-19T03:11:45;26.70;63.00
67817;DHT22;54614;47.576;7.524;2022-08-19T03:14:12;26.70;63.00
67817;DHT22;54614;47.576;7.524;2022-08-19T03:16:49;26.70;63.10
67817;DHT22;54614;47.576;7.524;2022-08-19T03:19:18;26.70;63.10
67817;DHT22;54614;47.576;7.524;2022-08-19T03:21:47;26.70;63.10
67817;DHT22;54614;47.576;7.524;2022-08-19T03:24:14;26.70;63.10
67817;DHT22;54614;47.576;7.524;2022-08-19T03:26:43;26.70;63.10
67817;DHT22;54614;47.576;7.524;2022-08-19T03:29:11;26.70;63.10
67817;DHT22;54614;47.576;7.524;2022-08-19T03:31:38;26.70;63.20
67817;DHT22;54614;47.576;7.524;2022-08-19T03:34:06;26.70;63.40
67817;DHT22;54614;47.576;7.524;2022-08-19T03:36:32;26.70;63.30
67817;DHT22;54614;47.576;7.524;2022-08-19T03:39:00;26.70;63.20
67817;DHT22;54614;47.576;7.524;2022-08-19T03:41:31;26.70;63.10
67817;DHT22;54614;47.576;7.524;2022-08-19T03:44:02;26.70;63.00
67817;DHT22;54614;47.576;7.524;2022-08-19T03:46:31;26.70;63.00
67817;DHT22;54614;47.576;7.524;2022-08-19T03:49:00;26.80;63.00
67817;DHT22;54614;47.576;7.524;2022-08-19T03:51:35;26.70;63.10
67817;DHT22;54614;47.576;7.524;2022-08-19T03:54:06;26.70;63.10
67817;DHT22;54614;47.576;7.524;2022-08-19T03:56:36;26.70;63.10
67817;DHT22;54614;47.576;7.524;2022-08-19T03:59:05;26.70;63.00
67817;DHT22;54614;47.576;7.524;2022-08-19T04:01:35;26.70;63.00
67817;DHT22;54614;47.576;7.524;2022-08-19T04:04:01;26.70;63.20
67817;DHT22;54614;47.576;7.524;2022-08-19T04:06:31;26.70;63.00
67817;DHT22;54614;47.576;7.524;2022-08-19T04:09:02;26.70;62.90
67817;DHT22;54614;47.576;7.524;2022-08-19T04:11:51;26.70;62.90
67817;DHT22;54614;47.576;7.524;2022-08-19T04:14:24;26.70;63.00
67817;DHT22;54614;47.576;7.524;2022-08-19T04:16:53;26.70;63.00
67817;DHT22;54614;47.576;7.524;2022-08-19T04:19:20;26.70;63.00
67817;DHT22;54614;47.576;7.524;2022-08-19T04:21:48;26.70;63.00
67817;DHT22;54614;47.576;7.524;2022-08-19T04:24:17;26.70;63.10
67817;DHT22;54614;47.576;7.524;2022-08-19T04:26:44;26.70;63.10
67817;DHT22;54614;47.576;7.524;2022-08-19T04:29:17;26.60;63.20
67817;DHT22;54614;47.576;7.524;2022-08-19T04:31:51;26.70;63.10
67817;DHT22;54614;47.576;7.524;2022-08-19T04:34:21;26.70;63.20
67817;DHT22;54614;47.576;7.524;2022-08-19T04:36:50;26.70;63.20
67817;DHT22;54614;47.576;7.524;2022-08-19T04:39:20;26.70;63.10
67817;DHT22;54614;47.576;7.524;2022-08-19T04:41:48;26.70;63.20
67817;DHT22;54614;47.576;7.524;2022-08-19T04:44:34;26.70;63.30
67817;DHT22;54614;47.576;7.524;2022-08-19T04:47:02;26.70;63.40
67817;DHT22;54614;47.576;7.524;2022-08-19T04:49:30;26.70;63.30
67817;DHT22;54614;47.576;7.524;2022-08-19T04:51:56;26.70;63.30
67817;DHT22;54614;47.576;7.524;2022-08-19T04:54:24;26.70;63.30
67817;DHT22;54614;47.576;7.524;2022-08-19T04:56:52;26.50;63.00
67817;DHT22;54614;47.576;7.524;2022-08-19T04:59:20;26.40;63.20
67817;DHT22;54614;47.576;7.524;2022-08-19T05:01:47;26.50;63.20
67817;DHT22;54614;47.576;7.524;2022-08-19T05:04:18;26.50;63.10
67817;DHT22;54614;47.576;7.524;2022-08-19T05:06:47;26.60;62.90
67817;DHT22;54614;47.576;7.524;2022-08-19T05:09:15;26.70;63.00
67817;DHT22;54614;47.576;7.524;2022-08-19T05:11:41;26.80;62.80
67817;DHT22;54614;47.576;7.524;2022-08-19T05:14:09;26.80;62.80
67817;DHT22;54614;47.576;7.524;2022-08-19T05:16:38;26.80;62.90
67817;DHT22;54614;47.576;7.524;2022-08-19T05:19:04;26.80;63.00
67817;DHT22;54614;47.576;7.524;2022-08-19T05:21:49;26.70;63.10
67817;DHT22;54614;47.576;7.524;2022-08-19T05:24:33;26.70;63.20
67817;DHT22;54614;47.576;7.524;2022-08-19T05:27:00;26.70;63.30
67817;DHT22;54614;47.576;7.524;2022-08-19T05:29:28;26.70;63.00
67817;DHT22;54614;47.576;7.524;2022-08-19T05:31:57;26.40;63.30
67817;DHT22;54614;47.576;7.524;2022-08-19T05:34:24;26.40;63.30
67817;DHT22;54614;47.576;7.524;2022-08-19T05:36:54;26.40;63.30
67817;DHT22;54614;47.576;7.524;2022-08-19T05:39:27;26.40;63.20
67817;DHT22;54614;47.576;7.524;2022-08-19T05:41:57;26.40;63.10
67817;DHT22;54614;47.576;7.524;2022-08-19T05:44:28;26.50;63.20
67817;DHT22;54614;47.576;7.524;2022-08-19T05:46:59;26.40;62.90
67817;DHT22;54614;47.576;7.524;2022-08-19T05:49:28;26.50;63.20
67817;DHT22;54614;47.576;7.524;2022-08-19T05:51:55;26.50;63.20
67817;DHT22;54614;47.576;7.524;2022-08-19T05:54:22;26.40;63.20
67817;DHT22;54614;47.576;7.524;2022-08-19T05:56:50;26.40;63.00
67817;DHT22;54614;47.576;7.524;2022-08-19T05:59:17;26.40;63.00
67817;DHT22;54614;47.576;7.524;2022-08-19T06:01:47;26.40;63.00
67817;DHT22;54614;47.576;7.524;2022-08-19T06:04:19;26.40;63.00
67817;DHT22;54614;47.576;7.524;2022-08-19T06:06:47;26.40;62.90
67817;DHT22;54614;47.576;7.524;2022-08-19T06:09:18;26.40;63.00
67817;DHT22;54614;47.576;7.524;2022-08-19T06:11:50;26.40;62.90
67817;DHT22;54614;47.576;7.524;2022-08-19T06:14:28;26.40;63.00
67817;DHT22;54614;47.576;7.524;2022-08-19T06:16:56;26.40;63.00
67817;DHT22;54614;47.576;7.524;2022-08-19T06:19:25;26.40;63.10
67817;DHT22;54614;47.576;7.524;2022-08-19T06:21:52;26.40;63.00
67817;DHT22;54614;47.576;7.524;2022-08-19T06:24:21;26.40;62.90
67817;DHT22;54614;47.576;7.524;2022-08-19T06:26:51;26.40;62.90
67817;DHT22;54614;47.576;7.524;2022-08-19T06:29:22;26.40;62.90
67817;DHT22;54614;47.576;7.524;2022-08-19T06:31:52;26.40;62.90
67817;DHT22;54614;47.576;7.524;2022-08-19T06:34:21;26.40;62.80
67817;DHT22;54614;47.576;7.524;2022-08-19T06:36:49;26.40;62.80
67817;DHT22;54614;47.576;7.524;2022-08-19T06:39:19;26.40;62.70
67817;DHT22;54614;47.576;7.524;2022-08-19T06:41:52;26.40;62.80
67817;DHT22;54614;47.576;7.524;2022-08-19T06:44:23;26.40;63.00
67817;DHT22;54614;47.576;7.524;2022-08-19T06:46:52;26.40;63.00
67817;DHT22;54614;47.576;7.524;2022-08-19T06:49:18;26.40;62.90
67817;DHT22;54614;47.576;7.524;2022-08-19T06:51:46;26.40;62.80
67817;DHT22;54614;47.576;7.524;2022-08-19T06:54:17;26.40;62.80
67817;DHT22;54614;47.576;7.524;2022-08-19T06:56:43;26.40;62.70
67817;DHT22;54614;47.576;7.524;2022-08-19T06:59:13;26.40;62.70
67817;DHT22;54614;47.576;7.524;2022-08-19T07:01:52;26.40;62.70
67817;DHT22;54614;47.576;7.524;2022-08-19T07:04:22;26.40;62.70
67817;DHT22;54614;47.576;7.524;2022-08-19T07:06:57;26.40;62.70
67817;DHT22;54614;47.576;7.524;2022-08-19T07:09:28;26.40;62.70
67817;DHT22;54614;47.576;7.524;2022-08-19T07:11:54;26.40;62.60
67817;DHT22;54614;47.576;7.524;2022-08-19T07:14:24;26.40;62.60
67817;DHT22;54614;47.576;7.524;2022-08-19T07:16:53;26.40;62.60
67817;DHT22;54614;47.576;7.524;2022-08-19T07:19:22;26.40;62.60
67817;DHT22;54614;47.576;7.524;2022-08-19T07:21:52;26.40;62.60
67817;DHT22;54614;47.576;7.524;2022-08-19T07:24:22;26.40;62.60
67817;DHT22;54614;47.576;7.524;2022-08-19T07:26:51;26.40;62.60
67817;DHT22;54614;47.576;7.524;2022-08-19T07:29:20;26.40;62.50
67817;DHT22;54614;47.576;7.524;2022-08-19T07:31:49;26.40;62.50
67817;DHT22;54614;47.576;7.524;2022-08-19T07:34:16;26.40;62.50
67817;DHT22;54614;47.576;7.524;2022-08-19T07:36:43;26.40;62.50
67817;DHT22;54614;47.576;7.524;2022-08-19T07:39:13;26.40;62.50
67817;DHT22;54614;47.576;7.524;2022-08-19T07:41:42;26.40;62.50
67817;DHT22;54614;47.576;7.524;2022-08-19T07:44:09;26.40;62.50
67817;DHT22;54614;47.576;7.524;2022-08-19T07:46:38;26.40;62.40
67817;DHT22;54614;47.576;7.524;2022-08-19T07:49:07;26.40;62.40
67817;DHT22;54614;47.576;7.524;2022-08-19T07:51:38;26.40;62.40
67817;DHT22;54614;47.576;7.524;2022-08-19T07:54:04;26.40;62.40
67817;DHT22;54614;47.576;7.524;2022-08-19T07:56:31;26.40;62.40
67817;DHT22;54614;47.576;7.524;2022-08-19T07:58:57;26.40;62.40
67817;DHT22;54614;47.576;7.524;2022-08-19T08:01:26;26.40;62.40
67817;DHT22;54614;47.576;7.524;2022-08-19T08:03:54;26.40;62.40
67817;DHT22;54614;47.576;7.524;2022-08-19T08:06:40;26.40;62.40
67817;DHT22;54614;47.576;7.524;2022-08-19T08:09:29;26.40;62.40
67817;DHT22;54614;47.576;7.524;2022-08-19T08:12:04;26.40;62.40
67817;DHT22;54614;47.576;7.524;2022-08-19T08:14:37;26.40;62.40
67817;DHT22;54614;47.576;7.524;2022-08-19T08:17:07;26.40;62.40
67817;DHT22;54614;47.576;7.524;2022-08-19T08:19:34;26.40;62.40
67817;DHT22;54614;47.576;7.524;2022-08-19T08:22:02;26.40;62.30
67817;DHT22;54614;47.576;7.524;2022-08-19T08:24:31;26.40;62.30
67817;DHT22;54614;47.576;7.524;2022-08-19T08:26:59;26.40;62.60
67817;DHT22;54614;47.576;7.524;2022-08-19T08:29:30;26.40;62.30
67817;DHT22;54614;47.576;7.524;2022-08-19T08:31:56;26.40;62.30
67817;DHT22;54614;47.576;7.524;2022-08-19T08:34:23;26.40;62.30
67817;DHT22;54614;47.576;7.524;2022-08-19T08:36:49;26.40;62.30
67817;DHT22;54614;47.576;7.524;2022-08-19T08:39:19;26.40;62.30
67817;DHT22;54614;47.576;7.524;2022-08-19T08:42:05;26.40;62.30
67817;DHT22;54614;47.576;7.524;2022-08-19T08:47:38;26.40;62.30
67817;DHT22;54614;47.576;7.524;2022-08-19T08:50:31;26.40;62.30
67817;DHT22;54614;47.576;7.524;2022-08-19T08:53:06;26.40;62.30
67817;DHT22;54614;47.576;7.524;2022-08-19T08:55:36;26.40;62.30
67817;DHT22;54614;47.576;7.524;2022-08-19T08:58:12;26.40;62.30
67817;DHT22;54614;47.576;7.524;2022-08-19T09:00:47;26.40;62.30
67817;DHT22;54614;47.576;7.524;2022-08-19T09:03:20;26.40;62.20
67817;DHT22;54614;47.576;7.524;2022-08-19T09:08:33;26.40;62.20
67817;DHT22;54614;47.576;7.524;2022-08-19T09:17:09;26.40;62.20
67817;DHT22;54614;47.576;7.524;2022-08-19T09:19:46;26.40;62.20
67817;DHT22;54614;47.576;7.524;2022-08-19T09:22:15;26.40;62.20
67817;DHT22;54614;47.576;7.524;2022-08-19T09:24:41;26.40;62.20
67817;DHT22;54614;47.576;7.524;2022-08-19T09:27:07;26.40;62.20
67817;DHT22;54614;47.576;7.524;2022-08-19T09:29:33;26.40;62.10
67817;DHT22;54614;47.576;7.524;2022-08-19T09:31:59;26.40;62.10
67817;DHT22;54614;47.576;7.524;2022-08-19T09:34:24;26.40;62.10
67817;DHT22;54614;47.576;7.524;2022-08-19T09:36:51;26.40;62.10
67817;DHT22;54614;47.576;7.524;2022-08-19T09:39:18;26.40;62.10
67817;DHT22;54614;47.576;7.524;2022-08-19T09:41:44;26.40;62.20
67817;DHT22;54614;47.576;7.524;2022-08-19T09:44:10;26.40;62.10
67817;DHT22;54614;47.576;7.524;2022-08-19T09:46:38;26.50;62.20
67817;DHT22;54614;47.576;7.524;2022-08-19T09:49:04;26.40;62.10
67817;DHT22;54614;47.576;7.524;2022-08-19T09:51:32;26.40;62.10
67817;DHT22;54614;47.576;7.524;2022-08-19T09:54:01;26.40;62.10
67817;DHT22;54614;47.576;7.524;2022-08-19T09:56:29;26.40;62.10
67817;DHT22;54614;47.576;7.524;2022-08-19T09:58:58;26.40;62.10
67817;DHT22;54614;47.576;7.524;2022-08-19T10:01:27;26.40;62.20
67817;DHT22;54614;47.576;7.524;2022-08-19T10:03:56;26.40;62.10
67817;DHT22;54614;47.576;7.524;2022-08-19T10:06:25;26.40;62.10
67817;DHT22;54614;47.576;7.524;2022-08-19T10:08:55;26.40;62.10
67817;DHT22;54614;47.576;7.524;2022-08-19T10:11:22;26.40;62.10
67817;DHT22;54614;47.576;7.524;2022-08-19T10:13:48;26.40;62.10
67817;DHT22;54614;47.576;7.524;2022-08-19T10:16:18;26.40;62.10
67817;DHT22;54614;47.576;7.524;2022-08-19T10:18:48;26.40;62.10
67817;DHT22;54614;47.576;7.524;2022-08-19T10:23:54;26.40;62.10
67817;DHT22;54614;47.576;7.524;2022-08-19T10:26:25;26.40;62.10
67817;DHT22;54614;47.576;7.524;2022-08-19T10:28:53;26.40;62.10
67817;DHT22;54614;47.576;7.524;2022-08-19T10:31:25;26.40;62.10
67817;DHT22;54614;47.576;7.524;2022-08-19T10:33:55;26.40;62.10
67817;DHT22;54614;47.576;7.524;2022-08-19T10:36:31;26.40;62.10
67817;DHT22;54614;47.576;7.524;2022-08-19T10:39:02;26.40;62.10
67817;DHT22;54614;47.576;7.524;2022-08-19T10:41:35;26.40;62.10
67817;DHT22;54614;47.576;7.524;2022-08-19T10:44:07;26.40;62.00
67817;DHT22;54614;47.576;7.524;2022-08-19T10:46:41;26.40;62.00
67817;DHT22;54614;47.576;7.524;2022-08-19T10:49:13;26.40;62.00
67817;DHT22;54614;47.576;7.524;2022-08-19T10:51:39;26.40;62.00
67817;DHT22;54614;47.576;7.524;2022-08-19T10:54:25;26.40;62.00
67817;DHT22;54614;47.576;7.524;2022-08-19T10:57:12;26.40;62.00
67817;DHT22;54614;47.576;7.524;2022-08-19T10:59:38;26.40;62.00
67817;DHT22;54614;47.576;7.524;2022-08-19T11:02:07;26.40;61.90
67817;DHT22;54614;47.576;7.524;2022-08-19T11:04:36;26.40;61.90
67817;DHT22;54614;47.576;7.524;2022-08-19T11:07:04;26.40;61.90
67817;DHT22;54614;47.576;7.524;2022-08-19T11:09:35;26.40;61.90
67817;DHT22;54614;47.576;7.524;2022-08-19T11:12:05;26.40;61.90
67817;DHT22;54614;47.576;7.524;2022-08-19T11:14:31;26.40;62.60
67817;DHT22;54614;47.576;7.524;2022-08-19T11:16:59;26.40;61.90
67817;DHT22;54614;47.576;7.524;2022-08-19T11:19:25;26.40;61.90
67817;DHT22;54614;47.576;7.524;2022-08-19T11:21:52;26.40;61.90
67817;DHT22;54614;47.576;7.524;2022-08-19T11:24:24;26.40;62.00
67817;DHT22;54614;47.576;7.524;2022-08-19T11:26:53;26.40;61.90
67817;DHT22;54614;47.576;7.524;2022-08-19T11:29:24;26.40;61.90
67817;DHT22;54614;47.576;7.524;2022-08-19T11:31:53;26.40;61.90
67817;DHT22;54614;47.576;7.524;2022-08-19T11:34:23;26.40;62.00
67817;DHT22;54614;47.576;7.524;2022-08-19T11:36:53;26.40;62.00
67817;DHT22;54614;47.576;7.524;2022-08-19T11:39:24;26.40;62.00
67817;DHT22;54614;47.576;7.524;2022-08-19T11:41:52;26.40;61.90
67817;DHT22;54614;47.576;7.524;2022-08-19T11:44:17;26.40;61.90
67817;DHT22;54614;47.576;7.524;2022-08-19T11:46:45;26.40;61.90
67817;DHT22;54614;47.576;7.524;2022-08-19T11:49:13;26.40;61.90
67817;DHT22;54614;47.576;7.524;2022-08-19T11:51:41;26.40;61.90
67817;DHT22;54614;47.576;7.524;2022-08-19T11:54:12;26.40;61.90
67817;DHT22;54614;47.576;7.524;2022-08-19T11:56:40;26.40;61.90
67817;DHT22;54614;47.576;7.524;2022-08-19T11:59:06;26.40;61.90
67817;DHT22;54614;47.576;7.524;2022-08-19T12:01:33;26.40;61.90
67817;DHT22;54614;47.576;7.524;2022-08-19T12:03:59;26.50;61.90
67817;DHT22;54614;47.576;7.524;2022-08-19T12:06:29;26.40;61.90
67817;DHT22;54614;47.576;7.524;2022-08-19T12:09:02;26.40;61.90
67817;DHT22;54614;47.576;7.524;2022-08-19T12:11:31;26.40;61.90
67817;DHT22;54614;47.576;7.524;2022-08-19T12:13:57;26.40;61.90
67817;DHT22;54614;47.576;7.524;2022-08-19T12:16:27;26.40;61.90
67817;DHT22;54614;47.576;7.524;2022-08-19T12:18:55;26.40;61.90
67817;DHT22;54614;47.576;7.524;2022-08-19T12:21:26;26.40;61.90
67817;DHT22;54614;47.576;7.524;2022-08-19T12:23:57;26.40;61.90
67817;DHT22;54614;47.576;7.524;2022-08-19T12:26:26;26.40;61.90
67817;DHT22;54614;47.576;7.524;2022-08-19T12:28:54;26.40;61.90
67817;DHT22;54614;47.576;7.524;2022-08-19T12:31:20;26.40;61.90
67817;DHT22;54614;47.576;7.524;2022-08-19T12:33:47;26.40;61.90
67817;DHT22;54614;47.576;7.524;2022-08-19T12:36:14;26.40;61.90
67817;DHT22;54614;47.576;7.524;2022-08-19T12:38:41;26.40;61.80
67817;DHT22;54614;47.576;7.524;2022-08-19T12:41:12;26.40;61.80
67817;DHT22;54614;47.576;7.524;2022-08-19T12:43:41;26.40;61.80
67817;DHT22;54614;47.576;7.524;2022-08-19T12:46:07;26.40;61.80
67817;DHT22;54614;47.576;7.524;2022-08-19T12:48:35;26.40;61.80
67817;DHT22;54614;47.576;7.524;2022-08-19T12:51:08;26.40;61.90
67817;DHT22;54614;47.576;7.524;2022-08-19T12:53:37;26.40;61.80
67817;DHT22;54614;47.576;7.524;2022-08-19T12:56:05;26.40;61.80
67817;DHT22;54614;47.576;7.524;2022-08-19T12:58:31;26.40;61.80
67817;DHT22;54614;47.576;7.524;2022-08-19T13:01:05;26.40;61.80
67817;DHT22;54614;47.576;7.524;2022-08-19T13:03:33;26.40;61.80
67817;DHT22;54614;47.576;7.524;2022-08-19T13:05:59;26.40;61.80
67817;DHT22;54614;47.576;7.524;2022-08-19T13:08:25;26.40;61.80
67817;DHT22;54614;47.576;7.524;2022-08-19T13:10:50;26.40;61.80
67817;DHT22;54614;47.576;7.524;2022-08-19T13:13:19;26.40;61.80
67817;DHT22;54614;47.576;7.524;2022-08-19T13:15:44;26.40;61.80
67817;DHT22;54614;47.576;7.524;2022-08-19T13:18:11;26.40;61.80
67817;DHT22;54614;47.576;7.524;2022-08-19T13:20:38;26.40;61.80
67817;DHT22;54614;47.576;7.524;2022-08-19T13:23:06;26.40;61.80
67817;DHT22;54614;47.576;7.524;2022-08-19T13:25:33;26.40;61.80
67817;DHT22;54614;47.576;7.524;2022-08-19T13:28:00;26.40;61.80
67817;DHT22;54614;47.576;7.524;2022-08-19T13:30:26;26.40;61.80
67817;DHT22;54614;47.576;7.524;2022-08-19T13:33:10;26.40;61.80
67817;DHT22;54614;47.576;7.524;2022-08-19T13:36:10;26.40;61.80
67817;DHT22;54614;47.576;7.524;2022-08-19T13:38:33;26.40;61.80
67817;DHT22;54614;47.576;7.524;2022-08-19T13:41:04;26.40;61.70
67817;DHT22;54614;47.576;7.524;2022-08-19T13:43:31;26.40;61.80
67817;DHT22;54614;47.576;7.524;2022-08-19T13:45:56;26.40;61.80
67817;DHT22;54614;47.576;7.524;2022-08-19T13:48:23;26.40;61.80
67817;DHT22;54614;47.576;7.524;2022-08-19T13:50:51;26.40;61.80
67817;DHT22;54614;47.576;7.524;2022-08-19T13:53:18;26.40;61.80
67817;DHT22;54614;47.576;7.524;2022-08-19T13:55:44;26.40;61.70
67817;DHT22;54614;47.576;7.524;2022-08-19T13:58:11;26.40;61.70
67817;DHT22;54614;47.576;7.524;2022-08-19T14:00:40;26.40;61.80
67817;DHT22;54614;47.576;7.524;2022-08-19T14:03:08;26.40;61.80
67817;DHT22;54614;47.576;7.524;2022-08-19T14:05:35;26.40;61.70
67817;DHT22;54614;47.576;7.524;2022-08-19T14:08:01;26.40;61.70
67817;DHT22;54614;47.576;7.524;2022-08-19T14:10:28;26.30;61.60
67817;DHT22;54614;47.576;7.524;2022-08-19T14:12:57;26.40;61.70
67817;DHT22;54614;47.576;7.524;2022-08-19T14:15:26;26.40;61.70
67817;DHT22;54614;47.576;7.524;2022-08-19T14:17:53;26.40;61.70
67817;DHT22;54614;47.576;7.524;2022-08-19T14:20:20;26.40;61.70
67817;DHT22;54614;47.576;7.524;2022-08-19T14:22:47;26.40;61.70
67817;DHT22;54614;47.576;7.524;2022-08-19T14:25:16;26.40;61.70
67817;DHT22;54614;47.576;7.524;2022-08-19T14:27:44;26.40;61.70
67817;DHT22;54614;47.576;7.524;2022-08-19T14:30:14;26.40;61.70
67817;DHT22;54614;47.576;7.524;2022-08-19T14:32:43;26.40;61.70
67817;DHT22;54614;47.576;7.524;2022-08-19T14:35:09;26.40;61.70
67817;DHT22;54614;47.576;7.524;2022-08-19T14:37:38;26.40;61.70
67817;DHT22;54614;47.576;7.524;2022-08-19T14:40:05;26.40;61.70
67817;DHT22;54614;47.576;7.524;2022-08-19T14:42:33;26.40;61.70
67817;DHT22;54614;47.576;7.524;2022-08-19T14:45:00;26.40;61.70
67817;DHT22;54614;47.576;7.524;2022-08-19T14:47:27;26.40;61.70
67817;DHT22;54614;47.576;7.524;2022-08-19T14:49:53;26.40;61.60
67817;DHT22;54614;47.576;7.524;2022-08-19T14:52:19;26.40;61.70
67817;DHT22;54614;47.576;7.524;2022-08-19T14:54:46;26.40;61.60
67817;DHT22;54614;47.576;7.524;2022-08-19T14:57:13;26.40;61.60
67817;DHT22;54614;47.576;7.524;2022-08-19T14:59:41;26.40;61.60
67817;DHT22;54614;47.576;7.524;2022-08-19T15:02:08;26.40;61.60
67817;DHT22;54614;47.576;7.524;2022-08-19T15:04:35;26.40;61.70
67817;DHT22;54614;47.576;7.524;2022-08-19T15:07:01;26.40;61.70
67817;DHT22;54614;47.576;7.524;2022-08-19T15:09:33;26.40;61.70
67817;DHT22;54614;47.576;7.524;2022-08-19T15:12:00;26.40;61.70
67817;DHT22;54614;47.576;7.524;2022-08-19T15:14:28;26.40;61.70
67817;DHT22;54614;47.576;7.524;2022-08-19T15:17:02;26.40;61.70
67817;DHT22;54614;47.576;7.524;2022-08-19T15:19:29;26.40;61.70
67817;DHT22;54614;47.576;7.524;2022-08-19T15:21:56;26.40;61.70
67817;DHT22;54614;47.576;7.524;2022-08-19T15:24:23;26.40;61.70
67817;DHT22;54614;47.576;7.524;2022-08-19T15:26:51;26.40;61.60
67817;DHT22;54614;47.576;7.524;2022-08-19T15:29:18;26.40;61.80
67817;DHT22;54614;47.576;7.524;2022-08-19T15:31:44;26.40;61.90
67817;DHT22;54614;47.576;7.524;2022-08-19T15:34:11;26.30;61.90
67817;DHT22;54614;47.576;7.524;2022-08-19T15:36:37;26.40;62.00
67817;DHT22;54614;47.576;7.524;2022-08-19T15:39:03;26.40;61.90
67817;DHT22;54614;47.576;7.524;2022-08-19T15:41:30;26.40;61.80
67817;DHT22;54614;47.576;7.524;2022-08-19T15:44:00;26.40;61.70
67817;DHT22;54614;47.576;7.524;2022-08-19T15:46:36;26.40;61.80
67817;DHT22;54614;47.576;7.524;2022-08-19T15:49:04;26.40;61.80
67817;DHT22;54614;47.576;7.524;2022-08-19T15:51:33;26.40;61.80
67817;DHT22;54614;47.576;7.524;2022-08-19T15:54:05;26.40;61.80
67817;DHT22;54614;47.576;7.524;2022-08-19T15:56:33;26.40;61.80